Time;durP1;ratioP1;P1;durP2;ratioP2;P2;SDS_P1;SDS_P2;PMS_P1;PMS_P2;Temp;Humidity;BMP_temperature;BMP_pressure;BME280_temperature;BME280_humidity;BME280_pressure;Samples;Min_cycle;Max_cycle;Signal;HPM_P1;HPM_P2
2022/03/22 00:00:00;;;;;;;4.30;0.93;;;;;;;24.72;52.27;103846.34;5073145;28;20032;-68
2022/03/22 00:02:26;;;;;;;3.05;1.20;;;;;;;24.73;52.40;103845.31;5072645;28;20024;-68
2022/03/22 00:04:51;;;;;;;2.20;0.38;;;;;;;24.70;51.56;103842.88;5072957;28;20031;-67
2022/03/22 00:07:17;;;;;;;2.03;0.52;;;;;;;24.73;51.30;103847.19;5072691;28;20035;-68
2022/03/22 00:09:42;;;;;;;2.75;0.40;;;;;;;24.72;52.11;103842.72;5072752;28;20542;-68
2022/03/22 00:12:08;;;;;;;1.55;0.40;;;;;;;24.72;52.49;103834.47;5072753;28;20047;-68
2022/03/22 00:14:33;;;;;;;1.83;0.50;;;;;;;24.71;51.87;103830.84;5072528;28;20020;-68
2022/03/22 00:16:59;;;;;;;2.60;0.70;;;;;;;24.72;52.66;103832.56;5072519;28;20024;-68
2022/03/22 00:19:24;;;;;;;3.58;0.70;;;;;;;24.70;52.78;103834.59;5085901;28;20051;-67
2022/03/22 00:21:50;;;;;;;1.45;0.40;;;;;;;24.68;51.67;103831.09;5092750;28;20030;-69
2022/03/22 00:24:15;;;;;;;1.73;0.40;;;;;;;24.64;52.12;103834.28;5092798;28;20035;-67
2022/03/22 00:26:41;;;;;;;2.75;0.80;;;;;;;24.67;51.80;103823.84;5092782;28;20020;-68
2022/03/22 00:29:06;;;;;;;3.33;1.00;;;;;;;24.68;52.85;103835.72;5092706;28;20467;-68
2022/03/22 00:31:31;;;;;;;1.58;0.38;;;;;;;24.63;52.63;103825.16;5092352;28;20044;-69
2022/03/22 00:33:57;;;;;;;4.35;0.70;;;;;;;24.67;52.21;103818.34;5092729;28;20034;-67
2022/03/22 00:36:23;;;;;;;1.55;0.38;;;;;;;24.63;52.19;103822.41;5092289;28;20047;-68
2022/03/22 00:38:49;;;;;;;1.85;0.57;;;;;;;24.64;51.97;103807.66;5092522;28;20459;-68
2022/03/22 00:41:16;;;;;;;1.80;0.30;;;;;;;24.67;52.03;103823.84;5092416;28;20475;-68
2022/03/22 00:43:43;;;;;;;3.72;0.45;;;;;;;24.68;52.87;103813.72;5092510;28;20024;-68
2022/03/22 00:46:09;;;;;;;2.97;0.30;;;;;;;24.65;52.17;103814.88;5092555;28;20502;-69
2022/03/22 00:48:35;;;;;;;2.75;0.55;;;;;;;24.65;52.13;103817.63;5083038;28;20046;-69
2022/03/22 00:51:00;;;;;;;2.15;0.60;;;;;;;24.63;52.66;103816.91;5072420;28;20079;-68
2022/03/22 00:53:25;;;;;;;2.28;0.60;;;;;;;24.62;51.26;103820.69;5072083;28;20451;-68
2022/03/22 00:55:51;;;;;;;1.58;0.40;;;;;;;24.64;52.37;103817.78;5072152;28;20572;-68
2022/03/22 00:58:17;;;;;;;4.43;0.90;;;;;;;24.60;52.49;103811.69;5071952;28;20400;-68
2022/03/22 01:00:43;;;;;;;2.75;0.50;;;;;;;24.62;52.17;103809.66;5072226;28;20032;-68
2022/03/22 01:03:09;;;;;;;2.03;0.40;;;;;;;24.63;53.24;103805.91;5072124;28;20115;-69
2022/03/22 01:05:35;;;;;;;2.30;0.40;;;;;;;24.60;52.71;103807.06;5072036;28;20028;-68
2022/03/22 01:08:03;;;;;;;3.00;0.52;;;;;;;24.61;52.64;103802.44;5072151;28;20123;-69
2022/03/22 01:10:30;;;;;;;2.17;0.65;;;;;;;24.65;52.81;103792.00;5071943;28;20029;-69
2022/03/22 01:12:55;;;;;;;1.98;0.50;;;;;;;24.64;52.02;103796.63;5072739;28;20028;-69
2022/03/22 01:15:23;;;;;;;2.85;0.85;;;;;;;24.61;53.38;103796.94;5071661;28;20078;-68
2022/03/22 01:17:51;;;;;;;1.92;0.40;;;;;;;24.60;52.31;103795.19;5074109;28;20028;-67
2022/03/22 01:20:19;;;;;;;3.95;0.57;;;;;;;24.63;52.20;103794.03;5092026;28;20096;-68
2022/03/22 01:22:45;;;;;;;2.83;0.20;;;;;;;24.54;52.56;103785.66;5092308;28;20021;-69
2022/03/22 01:25:19;;;;;;;2.22;0.50;;;;;;;24.56;52.50;103793.75;5092108;28;20060;-68
2022/03/22 01:27:46;;;;;;;3.63;0.70;;;;;;;24.57;52.75;103789.97;5092095;28;20031;-68
2022/03/22 01:30:13;;;;;;;2.67;0.80;;;;;;;24.58;52.57;103791.72;5092533;28;20039;-68
2022/03/22 01:32:39;;;;;;;3.05;1.13;;;;;;;24.56;52.23;103788.25;5095752;28;20044;-68
2022/03/22 01:35:08;;;;;;;2.15;0.80;;;;;;;24.58;52.54;103791.72;5095933;28;20028;-68
2022/03/22 01:37:33;;;;;;;1.83;0.60;;;;;;;24.58;52.41;103791.72;5095869;28;20024;-68
2022/03/22 01:39:59;;;;;;;3.28;0.90;;;;;;;24.57;52.78;103789.97;5095790;28;20422;-68
2022/03/22 01:42:24;;;;;;;3.45;0.90;;;;;;;24.56;51.88;103782.75;5095595;28;20032;-68
2022/03/22 01:44:50;;;;;;;3.08;0.73;;;;;;;24.53;52.67;103785.78;5095896;28;20024;-69
2022/03/22 01:47:20;;;;;;;2.60;0.40;;;;;;;24.52;52.50;103784.03;5095259;28;20069;-68
2022/03/22 01:49:47;;;;;;;1.40;0.45;;;;;;;24.55;52.11;103786.50;5055397;28;20036;-69
2022/03/22 01:52:19;;;;;;;2.08;0.38;;;;;;;24.56;52.94;103777.25;5055326;28;20024;-68
2022/03/22 01:54:45;;;;;;;3.00;0.50;;;;;;;24.58;52.56;103777.97;5055490;28;20060;-69
2022/03/22 01:57:10;;;;;;;1.00;0.28;;;;;;;24.58;52.05;103776.09;5055030;28;20123;-68
2022/03/22 01:59:36;;;;;;;5.30;0.70;;;;;;;24.57;52.66;103776.22;5055090;28;20107;-68
2022/03/22 02:07:32;;;;;;;3.53;0.73;;;;;;;24.52;52.34;103770.25;5054998;28;20605;-68
2022/03/22 02:09:57;;;;;;;2.08;0.52;;;;;;;24.51;52.71;103769.41;5055109;28;20037;-69
2022/03/22 02:12:23;;;;;;;3.60;0.50;;;;;;;24.56;52.76;103771.75;5053459;28;20091;-69
2022/03/22 02:14:48;;;;;;;1.67;0.40;;;;;;;24.52;53.25;103771.16;5078165;28;20031;-68
2022/03/22 02:17:14;;;;;;;1.67;0.30;;;;;;;24.53;52.57;103772.03;5094945;28;20023;-68
2022/03/22 02:19:40;;;;;;;2.08;0.55;;;;;;;24.53;52.53;103766.53;5094857;28;20026;-68
2022/03/22 02:22:09;;;;;;;3.92;0.43;;;;;;;24.54;52.72;103762.78;5094782;28;20115;-69
2022/03/22 02:24:36;;;;;;;1.63;0.40;;;;;;;24.54;52.12;103760.03;5094922;28;20051;-68
2022/03/22 02:27:01;;;;;;;2.22;0.70;;;;;;;24.53;52.41;103766.53;5095077;28;20381;-68
2022/03/22 02:29:27;;;;;;;2.90;0.40;;;;;;;24.49;51.93;103762.31;5093618;28;20026;-68
2022/03/22 02:31:53;;;;;;;2.22;0.57;;;;;;;24.48;53.19;103753.19;5094714;28;20067;-69
2022/03/22 02:34:18;;;;;;;2.00;0.50;;;;;;;24.51;52.34;103763.03;5093293;28;20408;-68
2022/03/22 02:36:44;;;;;;;2.78;0.80;;;;;;;24.51;52.58;103749.28;5094840;28;20028;-68
2022/03/22 02:39:10;;;;;;;4.72;1.17;;;;;;;24.49;52.51;103748.56;5094507;28;20024;-67
2022/03/22 02:41:36;;;;;;;2.95;0.55;;;;;;;24.46;52.20;103738.72;5093423;28;20024;-69
2022/03/22 02:44:01;;;;;;;1.58;0.50;;;;;;;24.51;52.39;103741.88;5089834;28;20107;-68
2022/03/22 02:46:26;;;;;;;3.63;0.57;;;;;;;24.52;53.26;103742.75;5074229;28;20178;-68
2022/03/22 02:48:52;;;;;;;2.03;0.30;;;;;;;24.45;52.39;103736.97;5074424;28;20082;-67
2022/03/22 02:51:17;;;;;;;1.55;0.38;;;;;;;24.47;52.29;103728.56;5074066;28;20020;-65
2022/03/22 02:53:43;;;;;;;1.58;0.50;;;;;;;24.43;51.89;103729.88;5074245;28;20024;-67
2022/03/22 02:56:09;;;;;;;1.42;0.40;;;;;;;24.45;52.91;103730.59;5074105;28;20111;-67
2022/03/22 02:58:35;;;;;;;1.83;0.50;;;;;;;24.43;52.33;103722.50;5073776;28;20025;-67
2022/03/22 03:01:01;;;;;;;0.47;0.30;;;;;;;24.44;52.34;103724.25;5074104;28;20495;-67
2022/03/22 03:03:27;;;;;;;0.50;0.30;;;;;;;24.41;53.15;103729.16;5073824;28;20060;-67
2022/03/22 03:05:52;;;;;;;1.55;0.40;;;;;;;24.40;52.74;103721.94;5072724;28;20107;-67
2022/03/22 03:08:19;;;;;;;0.50;0.20;;;;;;;24.39;53.07;103709.19;5073785;28;20111;-66
2022/03/22 03:10:45;;;;;;;0.80;0.38;;;;;;;24.40;52.47;103710.94;5074019;28;20025;-68
2022/03/22 03:13:11;;;;;;;0.30;0.20;;;;;;;24.38;52.69;103701.97;5073721;28;20024;-67
2022/03/22 03:15:37;;;;;;;0.40;0.20;;;;;;;24.36;53.27;103706.72;5053632;28;20071;-67
2022/03/22 03:18:03;;;;;;;0.45;0.20;;;;;;;24.33;52.03;103712.50;5053602;28;20048;-67
2022/03/22 03:20:29;;;;;;;0.55;0.20;;;;;;;24.35;52.74;103713.22;5054004;28;20495;-67
2022/03/22 03:22:54;;;;;;;0.43;0.15;;;;;;;24.35;52.33;103702.22;5053738;28;20025;-67
2022/03/22 03:25:20;;;;;;;0.22;0.10;;;;;;;24.34;53.01;103712.34;5053343;28;20489;-67
2022/03/22 03:27:45;;;;;;;0.30;0.20;;;;;;;24.33;53.20;103709.75;5053572;28;20032;-67
2022/03/22 03:30:11;;;;;;;0.95;0.32;;;;;;;24.34;52.98;103717.84;5053443;28;20360;-67
2022/03/22 03:32:36;;;;;;;0.20;0.13;;;;;;;24.35;52.82;103707.72;5053285;28;20088;-67
2022/03/22 03:35:04;;;;;;;0.30;0.20;;;;;;;24.32;52.28;103708.00;5053431;28;20025;-67
2022/03/22 03:37:34;;;;;;;0.60;0.10;;;;;;;24.32;52.30;103708.88;5053258;28;20029;-67
2022/03/22 03:39:59;;;;;;;0.57;0.30;;;;;;;24.32;52.80;103697.00;5053185;28;20800;-66
2022/03/22 03:42:24;;;;;;;0.40;0.17;;;;;;;24.30;52.77;103698.03;5053037;28;20025;-67
2022/03/22 03:47:34;;;;;;;0.17;0.10;;;;;;;24.30;52.73;103700.78;5093296;28;20061;-66
2022/03/22 03:50:02;;;;;;;0.60;0.20;;;;;;;24.30;52.96;103698.03;5093402;28;20107;-67
2022/03/22 03:52:29;;;;;;;0.73;0.30;;;;;;;24.33;53.14;103698.75;5093210;28;20047;-67
2022/03/22 03:54:56;;;;;;;0.73;0.20;;;;;;;24.31;53.13;103696.13;5092963;28;20031;-67
2022/03/22 03:57:23;;;;;;;1.38;0.70;;;;;;;24.29;51.84;103700.91;5093001;28;20034;-67
2022/03/22 03:59:49;;;;;;;0.57;0.40;;;;;;;24.30;53.15;103698.03;5093008;28;20031;-68
2022/03/22 04:02:16;;;;;;;0.22;0.20;;;;;;;24.27;53.37;103695.53;5091635;28;20466;-67
2022/03/22 04:04:43;;;;;;;1.60;0.35;;;;;;;24.26;53.17;103703.94;5093783;28;20030;-68
2022/03/22 04:07:10;;;;;;;2.50;0.50;;;;;;;24.26;52.60;103696.53;5093116;28;20038;-67
2022/03/22 04:09:37;;;;;;;2.45;0.30;;;;;;;24.29;52.85;103693.53;5092008;28;20024;-68
2022/03/22 04:12:04;;;;;;;1.15;0.40;;;;;;;24.30;52.28;103680.66;5093083;28;20024;-68
2022/03/22 04:14:29;;;;;;;2.00;0.40;;;;;;;24.28;52.36;103680.78;5079800;28;20507;-68
2022/03/22 04:16:58;;;;;;;2.15;0.30;;;;;;;24.25;51.95;103680.19;5089654;28;20119;-68
2022/03/22 04:19:24;;;;;;;1.60;0.40;;;;;;;24.27;52.21;103683.66;5092545;28;20464;-68
2022/03/22 04:21:50;;;;;;;2.25;0.60;;;;;;;24.27;53.02;103684.53;5092827;28;20062;-68
2022/03/22 04:24:16;;;;;;;1.85;0.30;;;;;;;24.29;52.33;103682.53;5092792;28;20055;-68
2022/03/22 04:26:45;;;;;;;0.82;0.30;;;;;;;24.28;52.39;103680.78;5092792;28;20052;-68
2022/03/22 04:34:43;;;;;;;1.80;0.40;;;;;;;24.28;52.87;103679.91;5092981;28;20043;-68
2022/03/22 04:37:12;;;;;;;2.03;0.52;;;;;;;24.26;51.80;103676.44;5092556;28;20119;-67
2022/03/22 04:39:40;;;;;;;1.20;0.28;;;;;;;24.22;52.03;103670.34;5092301;28;20024;-68
2022/03/22 04:42:06;;;;;;;1.52;0.50;;;;;;;24.23;52.16;103671.22;5092423;28;20028;-68
2022/03/22 04:44:32;;;;;;;1.40;0.20;;;;;;;24.23;51.42;103666.59;5079263;28;20384;-68
2022/03/22 04:46:58;;;;;;;2.83;0.30;;;;;;;24.26;51.55;103665.44;5072426;28;20574;-68
2022/03/22 04:49:25;;;;;;;3.75;0.20;;;;;;;24.26;51.89;103673.69;5072147;28;20370;-68
2022/03/22 04:57:19;;;;;;;2.08;0.32;;;;;;;24.26;52.00;103655.31;5072036;28;20052;-68
2022/03/22 04:59:44;;;;;;;1.05;0.52;;;;;;;24.22;51.74;103656.59;5072307;28;20455;-68
2022/03/22 05:02:10;;;;;;;1.63;0.40;;;;;;;24.29;52.77;103649.53;5072136;28;20033;-68
2022/03/22 05:04:36;;;;;;;1.30;0.47;;;;;;;24.42;52.58;103648.41;5072099;28;20028;-68
2022/03/22 05:07:02;;;;;;;1.65;0.40;;;;;;;24.49;50.84;103644.03;5075807;28;20029;-68
2022/03/22 05:09:30;;;;;;;1.65;0.22;;;;;;;24.53;50.32;103640.00;5074730;28;20134;-68
2022/03/22 05:11:57;;;;;;;2.42;0.52;;;;;;;24.57;49.95;103641.44;5076191;28;20033;-69
2022/03/22 05:14:23;;;;;;;1.83;0.32;;;;;;;24.62;50.01;103633.63;5089925;28;20028;-68
2022/03/22 05:16:48;;;;;;;2.33;0.93;;;;;;;24.58;48.96;103626.69;5096338;28;20163;-68
2022/03/22 05:19:13;;;;;;;1.80;0.25;;;;;;;24.65;49.60;103627.81;5094734;28;20058;-67
2022/03/22 05:21:39;;;;;;;1.48;0.30;;;;;;;24.68;49.70;103634.91;5096068;28;20491;-68
2022/03/22 05:24:05;;;;;;;2.53;0.30;;;;;;;24.68;50.38;103623.91;5096315;28;20036;-68
2022/03/22 05:26:31;;;;;;;1.17;0.30;;;;;;;24.72;48.68;103628.13;5095959;28;20023;-68
2022/03/22 05:28:56;;;;;;;1.58;0.30;;;;;;;24.68;49.35;103638.53;5096280;28;20107;-68
2022/03/22 05:31:21;;;;;;;1.85;0.40;;;;;;;24.72;49.24;103628.97;5095702;28;20063;-69
2022/03/22 05:33:54;;;;;;;0.98;0.22;;;;;;;24.75;49.45;103634.19;5096111;28;20450;-69
2022/03/22 05:36:20;;;;;;;1.92;0.30;;;;;;;24.77;49.61;103626.66;5095761;28;20024;-68
2022/03/22 05:38:45;;;;;;;3.45;0.30;;;;;;;24.73;48.84;103627.97;5095854;28;20032;-68
2022/03/22 05:41:10;;;;;;;3.70;0.80;;;;;;;24.80;49.10;103625.47;5095762;28;20028;-69
2022/03/22 05:43:36;;;;;;;2.33;0.20;;;;;;;24.79;49.30;103630.13;5088243;28;20490;-68
2022/03/22 05:46:03;;;;;;;2.33;0.30;;;;;;;24.73;47.77;103625.22;5075882;28;20033;-70
2022/03/22 05:48:30;;;;;;;0.77;0.17;;;;;;;24.82;49.37;103627.06;5075244;28;20316;-69
2022/03/22 05:50:55;;;;;;;0.35;0.13;;;;;;;24.82;49.14;103624.31;5075504;28;20020;-68
2022/03/22 05:53:21;;;;;;;2.63;0.50;;;;;;;24.82;49.14;103627.06;5075182;28;20033;-68
2022/03/22 05:55:47;;;;;;;1.65;0.15;;;;;;;24.81;49.65;103621.72;5075322;28;20024;-67
2022/03/22 05:58:13;;;;;;;1.10;0.10;;;;;;;24.79;49.58;103613.59;5073953;28;20491;-67
2022/03/22 06:00:38;;;;;;;0.85;0.22;;;;;;;24.80;49.47;103615.34;5073686;28;20020;-67
2022/03/22 06:03:03;;;;;;;0.95;0.10;;;;;;;24.82;49.99;103618.81;5075172;28;20031;-67
2022/03/22 06:05:29;;;;;;;0.38;0.20;;;;;;;24.80;49.47;103609.84;5075325;28;20023;-67
2022/03/22 06:07:55;;;;;;;0.00;0.00;;;;;;;24.80;48.78;103603.47;5073854;28;20494;-67
2022/03/22 06:10:21;;;;;;;0.32;0.10;;;;;;;24.80;49.42;103607.09;5074888;28;20525;-67
2022/03/22 06:12:47;;;;;;;0.90;0.20;;;;;;;24.81;48.82;103600.56;5077812;28;20032;-67
2022/03/22 06:15:15;;;;;;;0.68;0.10;;;;;;;24.82;48.78;103591.28;5095028;28;20099;-66
2022/03/22 06:17:44;;;;;;;0.40;0.10;;;;;;;24.82;48.96;103590.41;5094681;28;20023;-67
2022/03/22 06:20:10;;;;;;;0.20;0.20;;;;;;;24.81;48.53;103596.94;5094902;28;20024;-67
2022/03/22 06:22:35;;;;;;;0.10;0.10;;;;;;;24.83;49.08;103584.75;5093663;28;20376;-67
2022/03/22 06:25:00;;;;;;;0.22;0.10;;;;;;;24.85;48.64;103585.47;5093859;28;20467;-67
2022/03/22 06:27:25;;;;;;;0.20;0.10;;;;;;;24.85;48.05;103585.47;5093460;28;20016;-68
2022/03/22 06:29:51;;;;;;;0.50;0.30;;;;;;;24.89;49.51;103588.81;5095015;28;20030;-67
2022/03/22 06:32:16;;;;;;;0.10;0.00;;;;;;;24.83;48.85;103584.75;5094625;28;20055;-67
2022/03/22 06:34:41;;;;;;;0.30;0.25;;;;;;;24.82;49.06;103583.03;5094866;28;20073;-68
2022/03/22 06:37:06;;;;;;;0.20;0.08;;;;;;;24.81;49.33;103575.78;5094753;28;20035;-67
2022/03/22 06:39:32;;;;;;;0.32;0.10;;;;;;;24.82;47.70;103580.28;5094495;28;20020;-67
2022/03/22 06:41:57;;;;;;;0.20;0.10;;;;;;;24.78;48.32;103581.59;5094697;28;20451;-67
2022/03/22 06:44:22;;;;;;;0.10;0.10;;;;;;;24.83;48.85;103581.16;5078121;28;20020;-67
2022/03/22 06:46:48;;;;;;;0.20;0.20;;;;;;;24.88;48.88;103582.47;5074458;28;20437;-67
2022/03/22 06:49:14;;;;;;;0.65;0.15;;;;;;;24.86;48.89;103575.38;5074332;28;20035;-67
2022/03/22 06:51:39;;;;;;;0.52;0.10;;;;;;;24.88;47.52;103579.72;5074244;28;20028;-66
2022/03/22 06:54:04;;;;;;;0.77;0.65;;;;;;;24.86;48.31;103579.00;5074519;28;20025;-67
2022/03/22 06:56:31;;;;;;;0.30;0.10;;;;;;;24.85;48.15;103579.09;5073971;28;20037;-67
2022/03/22 06:58:57;;;;;;;0.30;0.10;;;;;;;24.87;48.15;103577.09;5074171;28;20036;-66
2022/03/22 07:01:22;;;;;;;0.00;0.00;;;;;;;24.88;48.06;103579.72;5073744;28;20083;-68
2022/03/22 07:03:48;;;;;;;1.52;0.20;;;;;;;24.88;48.61;103579.72;5074010;28;20420;-66
2022/03/22 07:06:14;;;;;;;0.30;0.20;;;;;;;24.87;48.79;103571.59;5073902;28;20020;-67
2022/03/22 07:08:39;;;;;;;0.25;0.10;;;;;;;24.87;48.59;103572.47;5073982;28;20063;-67
2022/03/22 07:13:49;;;;;;;0.47;0.20;;;;;;;24.86;48.78;103576.25;5087389;28;20047;-67
2022/03/22 07:16:14;;;;;;;0.10;0.08;;;;;;;24.86;48.21;103579.00;5093886;28;20456;-68
2022/03/22 07:18:40;;;;;;;0.70;0.10;;;;;;;24.88;48.76;103584.34;5094008;28;20117;-67
2022/03/22 07:21:05;;;;;;;0.35;0.10;;;;;;;24.90;48.90;103583.16;5093834;28;20028;-67
2022/03/22 07:23:31;;;;;;;0.10;0.00;;;;;;;24.89;48.93;103584.19;5092479;28;20027;-67
2022/03/22 07:25:56;;;;;;;0.15;0.00;;;;;;;24.92;49.00;103579.41;5093900;28;20501;-67
2022/03/22 07:28:22;;;;;;;0.03;0.00;;;;;;;24.90;48.50;103577.66;5092743;28;20070;-67
2022/03/22 07:30:47;;;;;;;0.00;0.00;;;;;;;24.93;49.13;103572.88;5093876;28;20068;-67
2022/03/22 07:33:13;;;;;;;0.55;0.20;;;;;;;24.92;48.75;103573.91;5093344;28;20076;-67
2022/03/22 07:35:38;;;;;;;0.63;0.35;;;;;;;24.90;48.94;103566.66;5092287;28;20043;-67
2022/03/22 07:38:04;;;;;;;0.03;0.03;;;;;;;24.90;48.91;103574.03;5093620;28;20024;-67
2022/03/22 07:40:29;;;;;;;0.47;0.10;;;;;;;24.91;48.96;103564.78;5093310;28;20228;-66
2022/03/22 07:42:55;;;;;;;0.15;0.10;;;;;;;24.93;48.94;103564.63;5087278;28;20017;-67
2022/03/22 07:45:20;;;;;;;0.52;0.30;;;;;;;24.88;49.48;103563.19;5073067;28;20029;-66
2022/03/22 07:47:46;;;;;;;0.30;0.10;;;;;;;24.85;48.62;103560.72;5073167;28;20586;-67
2022/03/22 07:53:01;;;;;;;0.38;0.17;;;;;;;24.90;48.91;103554.78;5073244;28;20240;-66
2022/03/22 07:55:28;;;;;;;0.32;0.03;;;;;;;24.93;49.69;103545.34;5073138;28;20502;-67
2022/03/22 07:57:54;;;;;;;0.47;0.10;;;;;;;24.89;47.53;103548.41;5072921;28;20032;-67
2022/03/22 08:00:20;;;;;;;0.50;0.05;;;;;;;24.87;49.16;103552.34;5072681;28;20035;-67
2022/03/22 08:03:03;;;;;;;0.20;0.00;;;;;;;24.93;49.28;103537.97;5072854;28;20025;-67
2022/03/22 08:05:30;;;;;;;0.43;0.00;;;;;;;24.92;48.69;103546.38;5072779;28;20399;-67
2022/03/22 08:07:55;;;;;;;0.70;0.20;;;;;;;24.92;48.55;103535.38;5072779;28;20064;-66
2022/03/22 08:10:22;;;;;;;0.68;0.10;;;;;;;24.90;48.72;103539.13;5072670;28;20543;-67
2022/03/22 08:12:48;;;;;;;0.52;0.10;;;;;;;24.89;48.19;103540.16;5079865;28;20055;-67
2022/03/22 08:15:14;;;;;;;0.68;0.35;;;;;;;24.89;48.35;103537.41;5092755;28;20024;-67
2022/03/22 08:17:40;;;;;;;0.20;0.10;;;;;;;24.87;48.37;103538.56;5092861;28;20103;-67
2022/03/22 08:20:07;;;;;;;0.20;0.20;;;;;;;24.92;48.54;103530.72;5092810;28;20031;-68
2022/03/22 08:22:44;;;;;;;0.45;0.17;;;;;;;24.93;49.16;103531.59;5073423;28;20312;-67
2022/03/22 08:25:09;;;;;;;0.43;0.05;;;;;;;24.92;48.68;103524.34;5072542;28;20024;-67
2022/03/22 08:27:34;;;;;;;0.28;0.03;;;;;;;24.94;48.16;103527.81;5072679;28;20103;-68
2022/03/22 08:30:00;;;;;;;0.25;0.10;;;;;;;24.92;48.74;103524.34;5072494;28;20039;-66
2022/03/22 08:32:25;;;;;;;0.55;0.20;;;;;;;24.93;48.64;103524.19;5071982;28;20399;-67
2022/03/22 08:34:50;;;;;;;0.10;0.10;;;;;;;24.90;48.04;103522.63;5072431;28;20451;-68
2022/03/22 08:37:16;;;;;;;0.35;0.13;;;;;;;24.92;48.71;103524.34;5072063;28;20447;-65
2022/03/22 08:39:41;;;;;;;0.30;0.10;;;;;;;24.95;48.57;103522.16;5071985;28;20035;-67
2022/03/22 08:42:06;;;;;;;0.00;0.00;;;;;;;24.93;47.78;103520.59;5073678;28;20081;-67
2022/03/22 08:44:32;;;;;;;0.52;0.17;;;;;;;24.95;49.06;103515.78;5090804;28;20028;-68
2022/03/22 08:46:59;;;;;;;0.98;0.22;;;;;;;24.96;49.66;103514.78;5092611;28;20016;-68
2022/03/22 08:49:24;;;;;;;0.13;0.03;;;;;;;24.96;48.84;103514.78;5092233;28;20061;-67
2022/03/22 08:51:49;;;;;;;0.20;0.10;;;;;;;24.97;48.55;103508.25;5092396;28;20119;-67
2022/03/22 08:54:17;;;;;;;0.55;0.10;;;;;;;24.96;47.37;103506.53;5090991;28;20020;-67
2022/03/22 08:56:42;;;;;;;0.40;0.10;;;;;;;24.93;48.55;103504.06;5092378;28;20069;-67
2022/03/22 08:59:07;;;;;;;0.38;0.08;;;;;;;24.96;49.12;103501.00;5092384;28;20028;-67
2022/03/22 09:01:32;;;;;;;0.20;0.10;;;;;;;24.98;48.85;103488.81;5092078;28;20099;-67
2022/03/22 09:06:42;;;;;;;0.10;0.00;;;;;;;24.94;48.45;103483.78;5092334;28;20490;-66
2022/03/22 09:09:10;;;;;;;0.13;0.10;;;;;;;24.96;47.92;103484.50;5092296;28;20036;-66
2022/03/22 09:11:37;;;;;;;1.35;0.22;;;;;;;24.90;46.95;103478.59;5092263;28;20028;-67
2022/03/22 09:14:03;;;;;;;0.40;0.03;;;;;;;24.93;48.66;103476.56;5072369;28;20024;-67
2022/03/22 09:16:31;;;;;;;0.70;0.20;;;;;;;24.93;48.33;103471.06;5072330;28;20506;-66
2022/03/22 09:18:56;;;;;;;0.40;0.10;;;;;;;24.97;48.70;103462.31;5072176;28;20023;-67
2022/03/22 09:21:22;;;;;;;0.40;0.00;;;;;;;24.99;48.85;103459.41;5071922;28;20024;-68
2022/03/22 09:23:47;;;;;;;1.33;0.45;;;;;;;24.90;48.15;103459.34;5072632;28;20047;-66
2022/03/22 09:26:13;;;;;;;0.35;0.10;;;;;;;24.93;47.61;103460.91;5070588;28;20398;-66
2022/03/22 09:28:38;;;;;;;0.70;0.10;;;;;;;24.97;49.49;103453.19;5071977;28;20027;-66
2022/03/22 09:31:04;;;;;;;1.17;0.15;;;;;;;24.97;48.74;103444.94;5071477;28;20027;-66
2022/03/22 09:33:30;;;;;;;0.80;0.10;;;;;;;24.93;48.47;103451.78;5071713;28;20507;-67
2022/03/22 09:35:57;;;;;;;0.60;0.15;;;;;;;24.94;47.44;103445.25;5071899;28;20028;-66
2022/03/22 09:38:23;;;;;;;0.88;0.10;;;;;;;24.95;47.58;103441.50;5071590;28;20028;-66
2022/03/22 09:40:49;;;;;;;0.32;0.10;;;;;;;24.95;48.57;103427.72;5071904;28;20095;-67
2022/03/22 09:43:17;;;;;;;0.30;0.30;;;;;;;24.90;46.39;103440.06;5071896;28;20194;-65
2022/03/22 09:45:43;;;;;;;1.17;0.28;;;;;;;24.96;48.58;103432.22;5071935;28;20024;-67
2022/03/22 09:48:09;;;;;;;0.22;0.10;;;;;;;24.94;48.56;103428.75;5071780;28;20467;-67
2022/03/22 09:53:19;;;;;;;0.35;0.13;;;;;;;24.98;47.86;103431.03;5075245;28;20249;-65
2022/03/22 09:55:45;;;;;;;0.20;0.10;;;;;;;24.97;47.46;103433.94;5075365;28;20490;-67
2022/03/22 09:58:11;;;;;;;2.63;0.10;;;;;;;24.98;48.35;103419.16;5075326;28;20070;-66
2022/03/22 10:00:38;;;;;;;2.00;0.20;;;;;;;24.97;48.30;103422.94;5075276;28;20032;-66
2022/03/22 10:03:03;;;;;;;0.88;0.10;;;;;;;24.94;48.88;103420.50;5075298;28;20052;-66
2022/03/22 10:05:29;;;;;;;2.42;0.20;;;;;;;24.94;47.83;103415.00;5075088;28;20048;-66
2022/03/22 10:08:04;;;;;;;0.60;0.10;;;;;;;24.95;nan;103414.84;5074907;28;20067;-67
2022/03/22 10:10:30;;;;;;;0.65;0.13;;;;;;;24.94;47.99;103406.72;5073573;28;20066;-65
2022/03/22 10:13:01;;;;;;;0.30;0.10;;;;;;;24.96;48.29;103404.69;5087033;28;20032;-66
2022/03/22 10:15:35;;;;;;;0.75;0.10;;;;;;;24.95;48.02;103398.31;5094971;28;20111;-67
2022/03/22 10:18:04;;;;;;;0.10;0.10;;;;;;;24.97;48.12;103401.78;5095279;28;20062;-67
2022/03/22 10:20:30;;;;;;;1.85;0.30;;;;;;;24.99;47.10;103398.88;5094986;28;20368;-67
2022/03/22 10:22:58;;;;;;;0.60;0.17;;;;;;;24.97;47.31;103396.28;5093897;28;20062;-67
2022/03/22 10:25:23;;;;;;;2.28;0.38;;;;;;;24.95;47.66;103386.44;5094844;28;20026;-67
2022/03/22 10:27:53;;;;;;;3.15;0.50;;;;;;;24.97;48.64;103385.28;5095000;28;20024;-67
2022/03/22 10:30:19;;;;;;;5.63;0.30;;;;;;;24.96;47.16;103382.66;5094820;28;20050;-66
2022/03/22 10:32:50;;;;;;;3.03;0.50;;;;;;;24.96;48.55;103377.16;5094918;28;20417;-67
2022/03/22 10:35:22;;;;;;;1.15;0.32;;;;;;;25.01;48.48;103377.59;5093416;28;20073;-68
2022/03/22 10:37:53;;;;;;;2.70;0.38;;;;;;;25.00;47.65;103373.97;5094883;28;20103;-67
2022/03/22 10:40:23;;;;;;;0.63;0.20;;;;;;;25.00;47.13;103367.59;5094665;28;20031;-67
2022/03/22 10:42:50;;;;;;;0.75;0.10;;;;;;;24.97;48.49;103374.25;5083175;28;20032;-68
2022/03/22 10:45:16;;;;;;;1.17;0.10;;;;;;;24.99;47.27;103355.69;5074419;28;20075;-68
2022/03/22 10:47:43;;;;;;;0.47;0.00;;;;;;;24.98;48.16;103353.09;5074326;28;20024;-68
2022/03/22 10:50:08;;;;;;;3.28;0.30;;;;;;;24.98;48.19;103358.59;5074412;28;20484;-66
2022/03/22 10:52:37;;;;;;;1.15;0.17;;;;;;;24.94;48.09;103351.69;5074754;28;20032;-67
2022/03/22 10:55:03;;;;;;;0.60;0.10;;;;;;;24.94;46.81;103357.19;5074425;28;20056;-67
2022/03/22 10:57:32;;;;;;;0.77;0.40;;;;;;;24.98;48.21;103347.59;5074041;28;20055;-67
2022/03/22 11:00:06;;;;;;;0.20;0.10;;;;;;;24.91;47.93;103347.38;5074232;28;20020;-67
2022/03/22 11:02:35;;;;;;;0.65;0.15;;;;;;;24.97;47.67;103351.38;5073314;28;20032;-68
2022/03/22 11:05:04;;;;;;;1.30;0.20;;;;;;;24.93;47.50;103344.47;5073780;28;20482;-67
2022/03/22 11:07:34;;;;;;;0.73;0.10;;;;;;;24.94;47.62;103343.44;5073833;28;20352;-67
2022/03/22 11:10:01;;;;;;;0.63;0.10;;;;;;;24.94;48.78;103341.56;5073920;28;20021;-67
2022/03/22 11:12:27;;;;;;;0.05;0.05;;;;;;;24.98;47.94;103342.09;5084144;28;20129;-67
2022/03/22 11:14:54;;;;;;;0.10;0.05;;;;;;;24.96;48.30;103350.50;5094151;28;20387;-67
2022/03/22 11:17:22;;;;;;;1.27;0.10;;;;;;;24.97;47.50;103334.88;5093834;28;20132;-66
2022/03/22 11:19:49;;;;;;;0.65;0.10;;;;;;;25.01;47.44;103339.06;5093979;28;20027;-67
2022/03/22 11:22:17;;;;;;;0.50;0.30;;;;;;;24.97;47.40;103329.38;5093928;28;20031;-68
2022/03/22 11:24:43;;;;;;;1.05;0.25;;;;;;;24.99;47.91;103321.81;5094031;28;20028;-67
2022/03/22 11:27:08;;;;;;;0.43;0.20;;;;;;;24.98;48.49;103320.09;5093876;28;20035;-67
2022/03/22 11:29:37;;;;;;;1.02;0.15;;;;;;;24.97;48.08;103312.84;5093797;28;20031;-67
2022/03/22 11:34:50;;;;;;;0.20;0.10;;;;;;;24.99;47.42;103316.31;5094093;28;20051;-68
2022/03/22 11:37:28;;;;;;;0.17;0.10;;;;;;;24.94;46.92;103313.16;5093593;28;20024;-66
2022/03/22 11:42:38;;;;;;;0.75;0.10;;;;;;;24.99;47.04;103306.16;5081333;28;20085;-67
2022/03/22 11:45:08;;;;;;;0.43;0.05;;;;;;;24.98;46.85;103303.56;5073328;28;20036;-67
2022/03/22 11:47:42;;;;;;;0.20;0.10;;;;;;;24.97;47.43;103291.69;5073066;28;20255;-67
2022/03/22 11:50:10;;;;;;;0.35;0.10;;;;;;;24.98;47.90;103289.81;5073250;28;20494;-67
2022/03/22 11:52:35;;;;;;;0.43;0.10;;;;;;;24.96;48.01;103292.72;5073339;28;20043;-66
2022/03/22 11:55:07;;;;;;;0.10;0.00;;;;;;;24.98;47.21;103281.56;5071944;28;20353;-67